createdAt,value
2018-07-27T00:00:34.127Z,1013.89
2018-07-27T00:01:34.231Z,1013.86
2018-07-27T00:02:34.265Z,1013.84
2018-07-27T00:03:34.287Z,1013.87
2018-07-27T00:04:34.219Z,1013.85
2018-07-27T00:05:34.037Z,1013.86
2018-07-27T00:06:34.292Z,1013.85
2018-07-27T00:07:34.254Z,1013.83
2018-07-27T00:08:34.217Z,1013.83
2018-07-27T00:09:34.274Z,1013.78
2018-07-27T00:10:34.164Z,1013.83
2018-07-27T00:11:34.173Z,1013.76
2018-07-27T00:12:34.065Z,1013.78
2018-07-27T00:13:34.297Z,1013.77
2018-07-27T00:14:34.083Z,1013.77
2018-07-27T00:15:34.186Z,1013.75
2018-07-27T00:16:34.301Z,1013.76
2018-07-27T00:17:34.270Z,1013.79
2018-07-27T00:18:34.184Z,1013.72
2018-07-27T00:19:34.052Z,1013.71
2018-07-27T00:20:34.296Z,1013.75
2018-07-27T00:21:34.354Z,1013.69
2018-07-27T00:22:34.152Z,1013.71
2018-07-27T00:23:34.094Z,1013.73
2018-07-27T00:24:34.139Z,1013.72
2018-07-27T00:25:34.221Z,1013.73
2018-07-27T00:26:34.245Z,1013.75
2018-07-27T00:27:34.082Z,1013.71
2018-07-27T00:28:34.254Z,1013.76
2018-07-27T00:29:34.097Z,1013.76
2018-07-27T00:30:34.162Z,1013.77
2018-07-27T00:31:34.316Z,1013.75
2018-07-27T00:32:34.169Z,1013.77
2018-07-27T00:33:34.298Z,1013.75
2018-07-27T00:34:34.114Z,1013.76
2018-07-27T00:35:34.306Z,1013.79
2018-07-27T00:36:34.226Z,1013.75
2018-07-27T00:37:34.185Z,1013.75
2018-07-27T00:38:34.112Z,1013.75
2018-07-27T00:39:34.392Z,1013.77
2018-07-27T00:40:34.167Z,1013.73
2018-07-27T00:41:34.073Z,1013.75
2018-07-27T00:42:34.250Z,1013.74
2018-07-27T00:43:34.303Z,1013.72
2018-07-27T00:44:34.561Z,1013.73
2018-07-27T00:45:33.992Z,1013.68
2018-07-27T00:46:34.106Z,1013.69
2018-07-27T00:47:34.036Z,1013.75
2018-07-27T00:48:34.347Z,1013.71
2018-07-27T00:49:34.224Z,1013.71
2018-07-27T00:50:34.014Z,1013.7
2018-07-27T00:51:34.145Z,1013.66
2018-07-27T00:52:34.295Z,1013.64
2018-07-27T00:53:34.195Z,1013.69
2018-07-27T00:54:34.170Z,1013.69
2018-07-27T00:55:34.067Z,1013.71
2018-07-27T00:56:34.094Z,1013.7
2018-07-27T00:57:34.178Z,1013.68
2018-07-27T00:58:34.061Z,1013.66
2018-07-27T00:59:34.028Z,1013.65
2018-07-27T01:00:34.156Z,1013.67
2018-07-27T01:01:34.292Z,1013.67
2018-07-27T01:02:34.111Z,1013.67
2018-07-27T01:03:34.058Z,1013.68
2018-07-27T01:04:34.302Z,1013.68
2018-07-27T01:05:34.169Z,1013.68
2018-07-27T01:06:34.148Z,1013.65
2018-07-27T01:07:34.229Z,1013.65
2018-07-27T01:08:44.107Z,1013.65
2018-07-27T01:09:34.845Z,1013.63
2018-07-27T01:10:34.278Z,1013.66
2018-07-27T01:11:34.361Z,1013.72
2018-07-27T01:12:34.231Z,1013.71
2018-07-27T01:13:34.284Z,1013.69
2018-07-27T01:14:34.186Z,1013.65
2018-07-27T01:15:34.031Z,1013.65
2018-07-27T01:16:34.207Z,1013.66
2018-07-27T01:17:34.183Z,1013.68
2018-07-27T01:18:34.046Z,1013.64
2018-07-27T01:19:34.536Z,1013.61
2018-07-27T01:20:34.097Z,1013.64
2018-07-27T01:21:34.270Z,1013.65
2018-07-27T01:22:34.303Z,1013.62
2018-07-27T01:23:34.267Z,1013.65
2018-07-27T01:24:44.206Z,1013.61
2018-07-27T01:25:34.289Z,1013.66
2018-07-27T01:26:34.111Z,1013.64
2018-07-27T01:27:34.248Z,1013.59
2018-07-27T01:28:34.168Z,1013.6
2018-07-27T01:29:34.359Z,1013.61
2018-07-27T01:30:34.332Z,1013.63
2018-07-27T01:31:34.229Z,1013.57
2018-07-27T01:32:34.160Z,1013.56
2018-07-27T01:33:34.204Z,1013.58
2018-07-27T01:34:34.010Z,1013.59
2018-07-27T01:35:34.249Z,1013.58
2018-07-27T01:36:34.182Z,1013.56
2018-07-27T01:37:34.268Z,1013.54
2018-07-27T01:38:34.225Z,1013.52
2018-07-27T01:39:34.270Z,1013.55
2018-07-27T01:40:34.330Z,1013.51
2018-07-27T01:41:34.236Z,1013.49
2018-07-27T01:42:34.142Z,1013.49
2018-07-27T01:43:34.131Z,1013.44
2018-07-27T01:44:34.236Z,1013.49
2018-07-27T01:45:34.181Z,1013.53
2018-07-27T01:46:34.110Z,1013.47
2018-07-27T01:47:34.222Z,1013.47
2018-07-27T01:48:34.131Z,1013.51
2018-07-27T01:49:34.134Z,1013.51
2018-07-27T01:50:34.058Z,1013.49
2018-07-27T01:51:34.184Z,1013.48
2018-07-27T01:52:34.023Z,1013.51
2018-07-27T01:53:34.088Z,1013.48
2018-07-27T01:54:34.285Z,1013.5
2018-07-27T01:55:34.106Z,1013.49
2018-07-27T01:56:34.081Z,1013.47
2018-07-27T01:57:34.255Z,1013.49
2018-07-27T01:58:34.282Z,1013.52
2018-07-27T01:59:34.126Z,1013.5
2018-07-27T02:00:34.234Z,1013.49
2018-07-27T02:01:34.094Z,1013.48
2018-07-27T02:02:34.103Z,1013.52
2018-07-27T02:03:34.323Z,1013.53
2018-07-27T02:04:34.218Z,1013.51
2018-07-27T02:05:34.166Z,1013.55
2018-07-27T02:06:34.083Z,1013.52
2018-07-27T02:07:34.177Z,1013.47
2018-07-27T02:08:34.025Z,1013.5
2018-07-27T02:09:34.174Z,1013.48
2018-07-27T02:10:33.897Z,1013.48
2018-07-27T02:11:34.125Z,1013.49
2018-07-27T02:12:34.622Z,1013.48
2018-07-27T02:13:34.196Z,1013.46
2018-07-27T02:14:34.044Z,1013.46
2018-07-27T02:15:34.145Z,1013.48
2018-07-27T02:16:34.155Z,1013.51
2018-07-27T02:17:34.053Z,1013.48
2018-07-27T02:18:34.174Z,1013.46
2018-07-27T02:19:34.002Z,1013.49
2018-07-27T02:20:34.101Z,1013.51
2018-07-27T02:21:34.112Z,1013.45
2018-07-27T02:22:34.167Z,1013.51
2018-07-27T02:23:34.400Z,1013.47
2018-07-27T02:24:34.315Z,1013.47
2018-07-27T02:25:34.076Z,1013.49
2018-07-27T02:26:34.025Z,1013.48
2018-07-27T02:27:34.294Z,1013.46
2018-07-27T02:28:34.029Z,1013.46
2018-07-27T02:29:34.050Z,1013.46
2018-07-27T02:30:34.135Z,1013.45
2018-07-27T02:31:34.401Z,1013.49
2018-07-27T02:32:34.244Z,1013.51
2018-07-27T02:33:34.312Z,1013.46
2018-07-27T02:34:34.075Z,1013.41
2018-07-27T02:35:34.191Z,1013.44
2018-07-27T02:36:34.478Z,1013.51
2018-07-27T02:37:34.015Z,1013.47
2018-07-27T02:38:34.215Z,1013.5
2018-07-27T02:39:34.072Z,1013.44
2018-07-27T02:40:34.084Z,1013.5
2018-07-27T02:41:34.565Z,1013.42
2018-07-27T02:42:34.191Z,1013.42
2018-07-27T02:43:34.099Z,1013.42
2018-07-27T02:44:34.456Z,1013.45
2018-07-27T02:45:34.249Z,1013.47
2018-07-27T02:46:34.137Z,1013.47
2018-07-27T02:47:34.419Z,1013.44
2018-07-27T02:48:34.473Z,1013.44
2018-07-27T02:49:34.105Z,1013.42
2018-07-27T02:50:34.202Z,1013.43
2018-07-27T02:51:34.036Z,1013.35
2018-07-27T02:52:34.357Z,1013.37
2018-07-27T02:53:34.079Z,1013.41
2018-07-27T02:54:34.273Z,1013.39
2018-07-27T02:55:33.980Z,1013.4
2018-07-27T02:56:34.178Z,1013.37
2018-07-27T02:57:34.188Z,1013.41
2018-07-27T02:58:34.340Z,1013.4
2018-07-27T02:59:34.206Z,1013.41
2018-07-27T03:00:34.022Z,1013.36
2018-07-27T03:01:34.049Z,1013.33
2018-07-27T03:02:34.154Z,1013.34
2018-07-27T03:03:34.303Z,1013.3
2018-07-27T03:04:34.080Z,1013.29
2018-07-27T03:05:34.152Z,1013.27
2018-07-27T03:06:34.272Z,1013.28
2018-07-27T03:07:34.202Z,1013.26
2018-07-27T03:08:34.028Z,1013.25
2018-07-27T03:09:34.576Z,1013.24
2018-07-27T03:10:34.149Z,1013.27
2018-07-27T03:11:34.122Z,1013.23
2018-07-27T03:12:34.117Z,1013.26
2018-07-27T03:13:34.171Z,1013.24
2018-07-27T03:14:34.215Z,1013.26
2018-07-27T03:15:34.213Z,1013.26
2018-07-27T03:16:34.299Z,1013.24
2018-07-27T03:17:34.457Z,1013.2
2018-07-27T03:18:34.135Z,1013.22
2018-07-27T03:19:34.567Z,1013.23
2018-07-27T03:20:34.046Z,1013.24
2018-07-27T03:21:34.050Z,1013.24
2018-07-27T03:22:33.993Z,1013.29
2018-07-27T03:23:34.084Z,1013.26
2018-07-27T03:24:34.178Z,1013.27
2018-07-27T03:25:34.237Z,1013.28
2018-07-27T03:26:33.983Z,1013.29
2018-07-27T03:27:34.196Z,1013.3
2018-07-27T03:28:34.132Z,1013.35
2018-07-27T03:29:34.022Z,1013.34
2018-07-27T03:30:34.084Z,1013.34
2018-07-27T03:31:34.070Z,1013.35
2018-07-27T03:32:34.149Z,1013.33
2018-07-27T03:33:34.196Z,1013.36
2018-07-27T03:34:34.001Z,1013.35
2018-07-27T03:35:34.307Z,1013.35
2018-07-27T03:36:34.138Z,1013.4
2018-07-27T03:37:34.127Z,1013.34
2018-07-27T03:38:34.213Z,1013.32
2018-07-27T03:39:34.091Z,1013.36
2018-07-27T03:40:34.070Z,1013.37
2018-07-27T03:41:34.130Z,1013.34
2018-07-27T03:42:34.135Z,1013.38
2018-07-27T03:43:34.239Z,1013.39
2018-07-27T03:44:34.388Z,1013.39
2018-07-27T03:45:34.113Z,1013.42
2018-07-27T03:46:34.253Z,1013.38
2018-07-27T03:47:34.114Z,1013.43
2018-07-27T03:48:34.353Z,1013.42
2018-07-27T03:49:33.956Z,1013.39
2018-07-27T03:50:34.317Z,1013.4
2018-07-27T03:51:34.069Z,1013.38
2018-07-27T03:52:34.151Z,1013.39
2018-07-27T03:53:34.044Z,1013.4
2018-07-27T03:54:34.207Z,1013.39
2018-07-27T03:55:34.488Z,1013.35
2018-07-27T03:56:34.203Z,1013.37
2018-07-27T03:57:34.317Z,1013.34
2018-07-27T03:58:33.967Z,1013.38
2018-07-27T03:59:34.180Z,1013.37
2018-07-27T04:00:34.093Z,1013.36
2018-07-27T04:01:34.170Z,1013.36
2018-07-27T04:02:34.035Z,1013.33
2018-07-27T04:03:34.251Z,1013.36
2018-07-27T04:04:34.096Z,1013.3
2018-07-27T04:05:34.249Z,1013.37
2018-07-27T04:06:34.008Z,1013.31
2018-07-27T04:07:33.963Z,1013.35
2018-07-27T04:08:34.157Z,1013.32
2018-07-27T04:09:34.119Z,1013.31
2018-07-27T04:10:34.291Z,1013.3
2018-07-27T04:11:34.189Z,1013.34
2018-07-27T04:12:34.338Z,1013.33
2018-07-27T04:13:34.140Z,1013.34
2018-07-27T04:14:34.159Z,1013.32
2018-07-27T04:15:34.317Z,1013.35
2018-07-27T04:16:33.952Z,1013.44
2018-07-27T04:17:34.457Z,1013.39
2018-07-27T04:18:34.117Z,1013.35
2018-07-27T04:19:34.409Z,1013.44
2018-07-27T04:20:34.250Z,1013.4
2018-07-27T04:21:34.046Z,1013.39
2018-07-27T04:22:34.334Z,1013.39
2018-07-27T04:23:34.028Z,1013.4
2018-07-27T04:24:34.107Z,1013.41
2018-07-27T04:25:34.009Z,1013.39
2018-07-27T04:26:34.013Z,1013.42
2018-07-27T04:27:34.102Z,1013.38
2018-07-27T04:28:34.212Z,1013.39
2018-07-27T04:29:34.253Z,1013.38
2018-07-27T04:30:34.167Z,1013.4
2018-07-27T04:31:34.169Z,1013.38
2018-07-27T04:32:34.182Z,1013.41
2018-07-27T04:33:34.070Z,1013.42
2018-07-27T04:34:34.055Z,1013.47
2018-07-27T04:35:34.223Z,1013.45
2018-07-27T04:36:34.106Z,1013.44
2018-07-27T04:37:34.227Z,1013.42
2018-07-27T04:38:34.089Z,1013.42
2018-07-27T04:39:34.052Z,1013.43
2018-07-27T04:40:34.081Z,1013.44
2018-07-27T04:41:34.043Z,1013.41
2018-07-27T04:42:34.011Z,1013.41
2018-07-27T04:43:33.914Z,1013.42
2018-07-27T04:44:33.996Z,1013.44
2018-07-27T04:45:34.151Z,1013.42
2018-07-27T04:46:34.256Z,1013.43
2018-07-27T04:47:34.181Z,1013.47
2018-07-27T04:48:34.093Z,1013.45
2018-07-27T04:49:34.008Z,1013.44
2018-07-27T04:50:34.184Z,1013.4
2018-07-27T04:51:33.996Z,1013.36
2018-07-27T04:52:33.997Z,1013.35
2018-07-27T04:53:34.141Z,1013.3
2018-07-27T04:54:34.090Z,1013.34
2018-07-27T04:55:34.005Z,1013.34
2018-07-27T04:56:34.468Z,1013.35
2018-07-27T04:57:34.053Z,1013.36
2018-07-27T04:58:33.954Z,1013.37
2018-07-27T04:59:34.198Z,1013.35
2018-07-27T05:00:33.999Z,1013.41
2018-07-27T05:01:33.976Z,1013.37
2018-07-27T05:02:34.139Z,1013.41
2018-07-27T05:03:34.094Z,1013.4
2018-07-27T05:04:34.283Z,1013.4
2018-07-27T05:05:33.999Z,1013.39
2018-07-27T05:06:34.121Z,1013.42
2018-07-27T05:07:34.261Z,1013.41
2018-07-27T05:08:34.481Z,1013.41
2018-07-27T05:09:34.038Z,1013.42
2018-07-27T05:10:34.003Z,1013.39
2018-07-27T05:11:34.179Z,1013.41
2018-07-27T05:12:34.081Z,1013.41
2018-07-27T05:13:34.500Z,1013.37
2018-07-27T05:14:34.202Z,1013.39
2018-07-27T05:15:34.130Z,1013.42
2018-07-27T05:16:34.009Z,1013.45
2018-07-27T05:17:34.358Z,1013.48
2018-07-27T05:18:34.099Z,1013.45
2018-07-27T05:19:33.976Z,1013.51
2018-07-27T05:20:34.220Z,1013.46
2018-07-27T05:21:34.104Z,1013.48
2018-07-27T05:22:34.130Z,1013.5
2018-07-27T05:23:33.964Z,1013.54
2018-07-27T05:24:34.396Z,1013.5
2018-07-27T05:25:34.138Z,1013.55
2018-07-27T05:26:34.358Z,1013.58
2018-07-27T05:27:34.117Z,1013.6
2018-07-27T05:28:33.922Z,1013.57
2018-07-27T05:29:34.070Z,1013.59
2018-07-27T05:30:34.095Z,1013.54
2018-07-27T05:31:34.439Z,1013.54
2018-07-27T05:32:33.977Z,1013.52
2018-07-27T05:33:34.170Z,1013.54
2018-07-27T05:34:34.000Z,1013.53
2018-07-27T05:35:34.021Z,1013.51
2018-07-27T05:36:34.519Z,1013.54
2018-07-27T05:37:34.103Z,1013.55
2018-07-27T05:38:34.095Z,1013.56
2018-07-27T05:39:34.008Z,1013.56
2018-07-27T05:40:34.166Z,1013.56
2018-07-27T05:41:34.119Z,1013.57
2018-07-27T05:42:34.098Z,1013.56
2018-07-27T05:43:34.057Z,1013.59
2018-07-27T05:44:34.052Z,1013.59
2018-07-27T05:45:34.209Z,1013.59
2018-07-27T05:46:33.950Z,1013.57
2018-07-27T05:47:34.123Z,1013.59
2018-07-27T05:48:34.227Z,1013.6
2018-07-27T05:49:34.106Z,1013.58
2018-07-27T05:50:34.234Z,1013.61
2018-07-27T05:51:34.131Z,1013.59
2018-07-27T05:52:34.165Z,1013.61
2018-07-27T05:53:34.197Z,1013.62
2018-07-27T05:54:34.002Z,1013.61
2018-07-27T05:55:57.444Z,1013.6
2018-07-27T05:56:33.944Z,1013.62
2018-07-27T05:57:34.010Z,1013.63
2018-07-27T05:58:33.915Z,1013.67
2018-07-27T05:59:34.052Z,1013.66
2018-07-27T06:00:34.105Z,1013.67
2018-07-27T06:01:33.923Z,1013.67
2018-07-27T06:02:34.331Z,1013.67
2018-07-27T06:03:33.955Z,1013.65
2018-07-27T06:04:34.033Z,1013.67
2018-07-27T06:05:34.051Z,1013.68
2018-07-27T06:06:34.062Z,1013.66
2018-07-27T06:07:33.967Z,1013.7
2018-07-27T06:08:34.047Z,1013.67
2018-07-27T06:09:33.940Z,1013.69
2018-07-27T06:10:34.145Z,1013.68
2018-07-27T06:11:34.128Z,1013.74
2018-07-27T06:12:34.282Z,1013.73
2018-07-27T06:13:34.101Z,1013.76
2018-07-27T06:14:34.346Z,1013.77
2018-07-27T06:15:34.069Z,1013.75
2018-07-27T06:16:33.943Z,1013.75
2018-07-27T06:17:33.989Z,1013.73
2018-07-27T06:18:34.183Z,1013.77
2018-07-27T06:19:34.083Z,1013.76
2018-07-27T06:20:33.993Z,1013.77
2018-07-27T06:21:34.016Z,1013.75
2018-07-27T06:22:34.115Z,1013.72
2018-07-27T06:23:34.266Z,1013.73
2018-07-27T06:24:33.969Z,1013.71
2018-07-27T06:25:34.213Z,1013.72
2018-07-27T06:26:34.318Z,1013.7
2018-07-27T06:27:34.222Z,1013.72
2018-07-27T06:28:33.933Z,1013.7
2018-07-27T06:29:34.058Z,1013.71
2018-07-27T06:30:34.107Z,1013.71
2018-07-27T06:31:34.052Z,1013.7
2018-07-27T06:32:35.022Z,1013.68
2018-07-27T06:33:34.164Z,1013.69
2018-07-27T06:34:33.952Z,1013.68
2018-07-27T06:35:34.056Z,1013.72
2018-07-27T06:36:34.301Z,1013.71
2018-07-27T06:37:33.999Z,1013.7
2018-07-27T06:38:33.980Z,1013.7
2018-07-27T06:39:34.171Z,1013.69
2018-07-27T06:40:34.065Z,1013.67
2018-07-27T06:41:34.096Z,1013.66
2018-07-27T06:42:34.056Z,1013.7
2018-07-27T06:43:33.883Z,1013.68
2018-07-27T06:44:34.112Z,1013.65
2018-07-27T06:45:34.066Z,1013.67
2018-07-27T06:46:34.042Z,1013.66
2018-07-27T06:47:34.080Z,1013.69
2018-07-27T06:48:34.092Z,1013.69
2018-07-27T06:49:34.033Z,1013.7
2018-07-27T06:50:34.166Z,1013.7
2018-07-27T06:51:34.115Z,1013.74
2018-07-27T06:52:34.297Z,1013.79
2018-07-27T06:53:34.304Z,1013.76
2018-07-27T06:54:33.935Z,1013.76
2018-07-27T06:55:34.217Z,1013.73
2018-07-27T06:56:35.348Z,1013.82
2018-07-27T06:57:34.164Z,1013.83
2018-07-27T06:58:34.124Z,1013.8
2018-07-27T06:59:33.988Z,1013.82
2018-07-27T07:00:34.036Z,1013.8
2018-07-27T07:01:33.904Z,1013.82
2018-07-27T07:02:34.622Z,1013.81
2018-07-27T07:03:34.293Z,1013.8
2018-07-27T07:04:33.996Z,1013.8
2018-07-27T07:05:34.367Z,1013.82
2018-07-27T07:06:34.033Z,1013.8
2018-07-27T07:07:33.971Z,1013.82
2018-07-27T07:08:34.124Z,1013.8
2018-07-27T07:09:34.368Z,1013.8
2018-07-27T07:10:33.896Z,1013.82
2018-07-27T07:11:33.984Z,1013.81
2018-07-27T07:12:34.143Z,1013.8
2018-07-27T07:13:34.011Z,1013.79
2018-07-27T07:14:34.695Z,1013.82
2018-07-27T07:15:34.084Z,1013.79
2018-07-27T07:16:33.952Z,1013.75
2018-07-27T07:17:33.985Z,1013.78
2018-07-27T07:18:34.131Z,1013.78
2018-07-27T07:19:33.923Z,1013.78
2018-07-27T07:20:34.061Z,1013.79
2018-07-27T07:21:34.090Z,1013.74
2018-07-27T07:22:33.911Z,1013.77
2018-07-27T07:23:34.102Z,1013.78
2018-07-27T07:24:34.065Z,1013.81
2018-07-27T07:25:34.613Z,1013.83
2018-07-27T07:26:34.098Z,1013.78
2018-07-27T07:27:33.990Z,1013.8
2018-07-27T07:28:33.881Z,1013.79
2018-07-27T07:29:34.178Z,1013.76
2018-07-27T07:30:34.125Z,1013.78
2018-07-27T07:31:34.203Z,1013.79
2018-07-27T07:32:34.078Z,1013.8
2018-07-27T07:33:34.045Z,1013.79
2018-07-27T07:34:33.906Z,1013.76
2018-07-27T07:35:34.047Z,1013.77
2018-07-27T07:36:34.289Z,1013.75
2018-07-27T07:37:33.910Z,1013.77
2018-07-27T07:38:33.976Z,1013.77
2018-07-27T07:39:34.042Z,1013.77
2018-07-27T07:40:34.048Z,1013.75
2018-07-27T07:41:33.957Z,1013.73
2018-07-27T07:42:34.259Z,1013.72
2018-07-27T07:43:33.947Z,1013.72
2018-07-27T07:44:34.106Z,1013.72
2018-07-27T07:45:33.886Z,1013.75
2018-07-27T07:46:34.205Z,1013.74
2018-07-27T07:47:34.081Z,1013.71
2018-07-27T07:48:34.032Z,1013.66
2018-07-27T07:49:34.050Z,1013.7
2018-07-27T07:50:34.070Z,1013.71
2018-07-27T07:51:34.366Z,1013.66
2018-07-27T07:52:33.940Z,1013.72
2018-07-27T07:53:34.046Z,1013.67
2018-07-27T07:54:34.006Z,1013.73
2018-07-27T07:55:33.912Z,1013.68
2018-07-27T07:56:34.019Z,1013.72
2018-07-27T07:57:34.138Z,1013.73
2018-07-27T07:58:34.418Z,1013.71
2018-07-27T07:59:34.127Z,1013.65
2018-07-27T08:00:34.032Z,1013.66
2018-07-27T08:01:34.047Z,1013.69
2018-07-27T08:02:34.013Z,1013.68
2018-07-27T08:03:34.114Z,1013.61
2018-07-27T08:04:33.885Z,1013.62
2018-07-27T08:05:34.415Z,1013.65
2018-07-27T08:06:34.271Z,1013.61
2018-07-27T08:07:34.285Z,1013.6
2018-07-27T08:08:34.211Z,1013.62
2018-07-27T08:09:33.939Z,1013.56
2018-07-27T08:10:34.135Z,1013.55
2018-07-27T08:11:34.280Z,1013.57
2018-07-27T08:12:34.131Z,1013.53
2018-07-27T08:13:34.056Z,1013.57
2018-07-27T08:14:34.141Z,1013.55
2018-07-27T08:15:33.984Z,1013.54
2018-07-27T08:16:34.082Z,1013.55
2018-07-27T08:17:34.099Z,1013.57
2018-07-27T08:18:34.139Z,1013.51
2018-07-27T08:19:33.873Z,1013.55
2018-07-27T08:20:34.005Z,1013.47
2018-07-27T08:21:34.020Z,1013.47
2018-07-27T08:22:33.858Z,1013.5
2018-07-27T08:23:34.012Z,1013.47
2018-07-27T08:24:34.093Z,1013.47
2018-07-27T08:25:33.875Z,1013.45
2018-07-27T08:26:34.149Z,1013.44
2018-07-27T08:27:34.161Z,1013.46
2018-07-27T08:28:33.939Z,1013.44
2018-07-27T08:29:33.897Z,1013.44
2018-07-27T08:30:34.114Z,1013.44
2018-07-27T08:31:33.887Z,1013.49
2018-07-27T08:32:33.910Z,1013.47
2018-07-27T08:33:33.983Z,1013.45
2018-07-27T08:34:33.927Z,1013.44
2018-07-27T08:35:33.997Z,1013.45
2018-07-27T08:36:33.937Z,1013.43
2018-07-27T08:37:33.970Z,1013.4
2018-07-27T08:38:33.898Z,1013.39
2018-07-27T08:39:34.208Z,1013.41
2018-07-27T08:40:33.899Z,1013.41
2018-07-27T08:41:34.124Z,1013.39
2018-07-27T08:42:34.024Z,1013.36
2018-07-27T08:43:33.957Z,1013.36
2018-07-27T08:44:34.155Z,1013.36
2018-07-27T08:45:33.943Z,1013.33
2018-07-27T08:46:34.140Z,1013.4
2018-07-27T08:47:34.008Z,1013.33
2018-07-27T08:48:33.974Z,1013.34
2018-07-27T08:49:33.811Z,1013.33
2018-07-27T08:50:33.918Z,1013.29
2018-07-27T08:51:34.380Z,1013.26
2018-07-27T08:52:34.038Z,1013.24
2018-07-27T08:53:33.912Z,1013.23
2018-07-27T08:54:33.996Z,1013.24
2018-07-27T08:55:34.077Z,1013.24
2018-07-27T08:56:34.022Z,1013.28
2018-07-27T08:57:34.048Z,1013.22
2018-07-27T08:58:33.861Z,1013.22
2018-07-27T08:59:33.955Z,1013.24
2018-07-27T09:00:33.922Z,1013.26
2018-07-27T09:01:34.065Z,1013.2
2018-07-27T09:02:33.882Z,1013.22
2018-07-27T09:03:34.043Z,1013.2
2018-07-27T09:04:33.965Z,1013.24
2018-07-27T09:05:34.011Z,1013.23
2018-07-27T09:06:33.919Z,1013.26
2018-07-27T09:07:33.980Z,1013.21
2018-07-27T09:08:34.047Z,1013.25
2018-07-27T09:09:33.967Z,1013.21
2018-07-27T09:10:09.260Z,1013.2
2018-07-27T09:11:09.252Z,1013.19
2018-07-27T09:12:19.074Z,1013.15
2018-07-27T09:13:09.221Z,1013.18
2018-07-27T09:14:09.145Z,1013.13
2018-07-27T09:15:09.223Z,1013.13
2018-07-27T09:16:09.317Z,1013.15
2018-07-27T09:17:09.015Z,1013.16
2018-07-27T09:18:09.326Z,1013.17
2018-07-27T09:19:09.167Z,1013.18
2018-07-27T09:20:09.254Z,1013.13
2018-07-27T09:21:09.287Z,1013.11
2018-07-27T09:22:09.115Z,1013.14
2018-07-27T09:23:09.455Z,1013.08
2018-07-27T09:24:09.278Z,1013.07
2018-07-27T09:25:11.060Z,1013.08
2018-07-27T09:26:09.260Z,1013.06
2018-07-27T09:27:09.353Z,1013.09
2018-07-27T09:28:09.326Z,1013.1
2018-07-27T09:29:09.166Z,1013.08
2018-07-27T09:30:08.956Z,1013.06
2018-07-27T09:31:09.163Z,1013.03
2018-07-27T09:32:09.296Z,1013.05
2018-07-27T09:33:22.271Z,1013
2018-07-27T09:34:22.602Z,1012.98
2018-07-27T09:35:22.316Z,1013
2018-07-27T09:36:18.563Z,1012.92
2018-07-27T09:37:18.793Z,1012.98
2018-07-27T09:38:18.603Z,1012.96
2018-07-27T09:39:18.580Z,1012.93
2018-07-27T09:40:18.660Z,1012.96
2018-07-27T09:41:18.703Z,1012.94
2018-07-27T09:42:18.746Z,1012.97
2018-07-27T09:43:18.776Z,1012.94
2018-07-27T09:44:18.590Z,1012.93
2018-07-27T09:45:18.540Z,1012.94
2018-07-27T09:46:18.576Z,1012.97
2018-07-27T09:47:18.549Z,1012.94
2018-07-27T09:48:18.666Z,1012.94
2018-07-27T09:49:18.568Z,1012.89
2018-07-27T09:50:18.691Z,1012.89
2018-07-27T09:51:18.596Z,1012.89
2018-07-27T09:52:18.674Z,1012.88
2018-07-27T09:53:18.672Z,1012.92
2018-07-27T09:54:18.607Z,1012.91
2018-07-27T09:55:18.744Z,1012.9
2018-07-27T09:56:18.507Z,1012.92
2018-07-27T09:57:18.694Z,1012.88
2018-07-27T09:58:18.656Z,1012.84
2018-07-27T09:59:18.843Z,1012.86
2018-07-27T10:00:18.626Z,1012.86
2018-07-27T10:01:18.666Z,1012.87
2018-07-27T10:02:18.598Z,1012.85
2018-07-27T10:03:18.714Z,1012.81
2018-07-27T10:04:18.717Z,1012.81
2018-07-27T10:05:18.664Z,1012.78
2018-07-27T10:06:02.633Z,1012.78
2018-07-27T10:07:02.808Z,1012.8
2018-07-27T10:08:02.488Z,1012.77
2018-07-27T10:09:02.453Z,1012.82
2018-07-27T10:10:02.610Z,1012.79
2018-07-27T10:11:03.283Z,1012.79
2018-07-27T10:12:02.685Z,1012.8
2018-07-27T10:13:02.719Z,1012.78
2018-07-27T10:14:02.713Z,1012.77
2018-07-27T10:15:02.534Z,1012.77
2018-07-27T10:16:02.658Z,1012.74
2018-07-27T10:17:02.438Z,1012.75
2018-07-27T10:18:02.627Z,1012.76
2018-07-27T10:19:02.785Z,1012.77
2018-07-27T10:20:02.617Z,1012.72
2018-07-27T10:21:02.889Z,1012.73
2018-07-27T10:22:02.632Z,1012.71
2018-07-27T10:23:02.664Z,1012.61
2018-07-27T10:24:02.888Z,1012.64
2018-07-27T10:25:02.515Z,1012.65
2018-07-27T10:26:12.522Z,1012.69
2018-07-27T10:27:02.643Z,1012.62
2018-07-27T10:28:02.893Z,1012.67
2018-07-27T10:29:02.822Z,1012.67
2018-07-27T10:30:02.534Z,1012.65
2018-07-27T10:31:02.808Z,1012.68
2018-07-27T10:32:02.542Z,1012.65
2018-07-27T10:33:02.851Z,1012.7
2018-07-27T10:34:02.750Z,1012.65
2018-07-27T10:35:02.619Z,1012.65
2018-07-27T10:36:02.719Z,1012.67
2018-07-27T10:37:03.110Z,1012.63
2018-07-27T10:38:02.935Z,1012.63
2018-07-27T10:39:02.624Z,1012.65
2018-07-27T10:40:02.808Z,1012.64
2018-07-27T10:41:02.550Z,1012.58
2018-07-27T10:42:02.665Z,1012.6
2018-07-27T10:43:02.595Z,1012.6
2018-07-27T10:44:02.613Z,1012.6
2018-07-27T10:45:02.767Z,1012.59
2018-07-27T10:46:02.559Z,1012.55
2018-07-27T10:47:02.776Z,1012.57
2018-07-27T10:48:02.952Z,1012.57
2018-07-27T10:49:02.745Z,1012.55
2018-07-27T10:50:02.434Z,1012.55
2018-07-27T10:51:02.637Z,1012.57
2018-07-27T10:52:02.643Z,1012.55
2018-07-27T10:53:02.429Z,1012.53
2018-07-27T10:54:02.822Z,1012.52
2018-07-27T10:55:03.074Z,1012.49
2018-07-27T10:56:02.655Z,1012.51
2018-07-27T10:57:02.665Z,1012.48
2018-07-27T10:58:02.492Z,1012.44
2018-07-27T10:59:02.760Z,1012.43
2018-07-27T11:00:02.686Z,1012.43
2018-07-27T11:01:02.541Z,1012.43
2018-07-27T11:02:02.438Z,1012.42
2018-07-27T11:03:02.660Z,1012.44
2018-07-27T11:04:02.574Z,1012.44
2018-07-27T11:05:02.533Z,1012.44
2018-07-27T11:06:02.356Z,1012.45
2018-07-27T11:07:02.672Z,1012.42
2018-07-27T11:08:02.657Z,1012.38
2018-07-27T11:09:02.464Z,1012.38
2018-07-27T11:10:02.623Z,1012.37
2018-07-27T11:11:02.559Z,1012.34
2018-07-27T11:12:02.597Z,1012.33
2018-07-27T11:13:02.601Z,1012.33
2018-07-27T11:14:02.585Z,1012.35
2018-07-27T11:15:02.470Z,1012.33
2018-07-27T11:16:02.705Z,1012.34
2018-07-27T11:17:02.586Z,1012.32
2018-07-27T11:18:02.571Z,1012.26
2018-07-27T11:19:02.596Z,1012.31
2018-07-27T11:20:02.925Z,1012.22
2018-07-27T11:21:02.577Z,1012.2
2018-07-27T11:22:02.612Z,1012.19
2018-07-27T11:23:02.966Z,1012.16
2018-07-27T11:24:02.570Z,1012.15
2018-07-27T11:25:02.735Z,1012.15
2018-07-27T11:26:02.589Z,1012.13
2018-07-27T11:27:02.638Z,1012.11
2018-07-27T11:28:02.610Z,1012.09
2018-07-27T11:29:02.838Z,1012.05
2018-07-27T11:30:02.671Z,1012.1
2018-07-27T11:31:02.723Z,1012.09
2018-07-27T11:32:02.560Z,1012.08
2018-07-27T11:33:02.589Z,1012.09
2018-07-27T11:34:02.953Z,1012.11
2018-07-27T11:35:02.845Z,1012.09
2018-07-27T11:36:02.629Z,1012.03
2018-07-27T11:37:03.171Z,1012.03
2018-07-27T11:38:02.535Z,1012.01
2018-07-27T11:39:02.686Z,1012.02
2018-07-27T11:40:02.589Z,1012
2018-07-27T11:41:02.641Z,1012.03
2018-07-27T11:42:02.695Z,1011.99
2018-07-27T11:43:02.556Z,1011.96
2018-07-27T11:44:02.782Z,1011.97
2018-07-27T11:45:02.704Z,1011.98
2018-07-27T11:46:02.426Z,1011.99
2018-07-27T11:47:02.416Z,1011.95
2018-07-27T11:48:02.518Z,1011.96
2018-07-27T11:49:02.885Z,1011.95
2018-07-27T11:50:02.587Z,1011.91
2018-07-27T11:51:02.671Z,1011.89
2018-07-27T11:52:02.715Z,1011.93
2018-07-27T11:53:02.742Z,1011.86
2018-07-27T11:54:02.664Z,1011.84
2018-07-27T11:55:02.889Z,1011.91
2018-07-27T11:56:02.530Z,1011.88
2018-07-27T11:57:03.097Z,1011.89
2018-07-27T11:58:02.564Z,1011.84
2018-07-27T11:59:02.651Z,1011.82
2018-07-27T12:00:02.682Z,1011.84
2018-07-27T12:01:02.588Z,1011.83
2018-07-27T12:02:02.684Z,1011.78
2018-07-27T12:03:02.507Z,1011.8
2018-07-27T12:04:02.686Z,1011.8
2018-07-27T12:05:02.634Z,1011.75
2018-07-27T12:06:02.821Z,1011.77
2018-07-27T12:07:03.455Z,1011.76
2018-07-27T12:08:02.909Z,1011.75